sensor_id;sensor_type;location;lat;lon;timestamp;P1;durP1;ratioP1;P2;durP2;ratioP2
5971;SDS011;3012;49.944;8.454;2023-07-09T00:01:29;7.68;;;3.25;;
5971;SDS011;3012;49.944;8.454;2023-07-09T00:03:58;3.95;;;3.00;;
5971;SDS011;3012;49.944;8.454;2023-07-09T00:06:26;8.38;;;3.00;;
5971;SDS011;3012;49.944;8.454;2023-07-09T00:08:54;5.55;;;2.67;;
5971;SDS011;3012;49.944;8.454;2023-07-09T00:11:22;7.75;;;3.05;;
5971;SDS011;3012;49.944;8.454;2023-07-09T00:13:50;6.13;;;3.13;;
5971;SDS011;3012;49.944;8.454;2023-07-09T00:16:21;7.95;;;3.40;;
5971;SDS011;3012;49.944;8.454;2023-07-09T00:18:52;5.70;;;2.88;;
5971;SDS011;3012;49.944;8.454;2023-07-09T00:21:21;7.72;;;3.13;;
5971;SDS011;3012;49.944;8.454;2023-07-09T00:23:50;6.10;;;2.70;;
5971;SDS011;3012;49.944;8.454;2023-07-09T00:26:18;3.88;;;2.78;;
5971;SDS011;3012;49.944;8.454;2023-07-09T00:28:49;4.85;;;3.03;;
5971;SDS011;3012;49.944;8.454;2023-07-09T00:31:21;5.72;;;3.33;;
5971;SDS011;3012;49.944;8.454;2023-07-09T00:33:49;3.83;;;2.90;;
5971;SDS011;3012;49.944;8.454;2023-07-09T00:36:18;10.32;;;3.05;;
5971;SDS011;3012;49.944;8.454;2023-07-09T00:38:51;6.75;;;3.03;;
5971;SDS011;3012;49.944;8.454;2023-07-09T00:41:19;3.00;;;2.60;;
5971;SDS011;3012;49.944;8.454;2023-07-09T00:43:49;5.07;;;3.20;;
5971;SDS011;3012;49.944;8.454;2023-07-09T00:49:29;8.23;;;2.58;;
5971;SDS011;3012;49.944;8.454;2023-07-09T00:52:02;3.30;;;2.67;;
5971;SDS011;3012;49.944;8.454;2023-07-09T00:54:41;4.15;;;3.33;;
5971;SDS011;3012;49.944;8.454;2023-07-09T00:57:13;5.97;;;2.53;;
5971;SDS011;3012;49.944;8.454;2023-07-09T00:59:44;2.95;;;2.63;;
5971;SDS011;3012;49.944;8.454;2023-07-09T01:02:17;2.95;;;2.47;;
5971;SDS011;3012;49.944;8.454;2023-07-09T01:04:50;6.80;;;3.05;;
5971;SDS011;3012;49.944;8.454;2023-07-09T01:07:20;6.18;;;3.13;;
5971;SDS011;3012;49.944;8.454;2023-07-09T01:09:49;5.18;;;2.88;;
5971;SDS011;3012;49.944;8.454;2023-07-09T01:12:17;4.93;;;2.70;;
5971;SDS011;3012;49.944;8.454;2023-07-09T01:14:47;3.22;;;2.55;;
5971;SDS011;3012;49.944;8.454;2023-07-09T01:17:17;7.70;;;2.97;;
5971;SDS011;3012;49.944;8.454;2023-07-09T01:19:48;3.90;;;2.60;;
5971;SDS011;3012;49.944;8.454;2023-07-09T01:22:19;5.15;;;2.88;;
5971;SDS011;3012;49.944;8.454;2023-07-09T01:24:50;8.85;;;2.72;;
5971;SDS011;3012;49.944;8.454;2023-07-09T01:27:22;6.55;;;2.67;;
5971;SDS011;3012;49.944;8.454;2023-07-09T01:29:53;3.30;;;2.70;;
5971;SDS011;3012;49.944;8.454;2023-07-09T01:32:22;3.10;;;2.30;;
5971;SDS011;3012;49.944;8.454;2023-07-09T01:34:53;3.25;;;3.05;;
5971;SDS011;3012;49.944;8.454;2023-07-09T01:37:27;3.45;;;2.80;;
5971;SDS011;3012;49.944;8.454;2023-07-09T01:39:55;3.03;;;2.83;;
5971;SDS011;3012;49.944;8.454;2023-07-09T01:42:24;5.22;;;3.05;;
5971;SDS011;3012;49.944;8.454;2023-07-09T01:44:54;3.50;;;3.20;;
5971;SDS011;3012;49.944;8.454;2023-07-09T01:47:22;5.88;;;2.42;;
5971;SDS011;3012;49.944;8.454;2023-07-09T01:49:52;4.07;;;2.80;;
5971;SDS011;3012;49.944;8.454;2023-07-09T01:52:23;5.95;;;2.83;;
5971;SDS011;3012;49.944;8.454;2023-07-09T01:54:55;6.53;;;3.05;;
5971;SDS011;3012;49.944;8.454;2023-07-09T01:57:24;5.95;;;3.05;;
5971;SDS011;3012;49.944;8.454;2023-07-09T01:59:59;5.07;;;3.03;;
5971;SDS011;3012;49.944;8.454;2023-07-09T02:02:30;6.88;;;3.17;;
5971;SDS011;3012;49.944;8.454;2023-07-09T02:04:58;9.77;;;2.95;;
5971;SDS011;3012;49.944;8.454;2023-07-09T02:07:28;3.35;;;3.03;;
5971;SDS011;3012;49.944;8.454;2023-07-09T02:09:56;3.50;;;2.63;;
5971;SDS011;3012;49.944;8.454;2023-07-09T02:12:27;3.35;;;3.00;;
5971;SDS011;3012;49.944;8.454;2023-07-09T02:14:55;5.25;;;3.08;;
5971;SDS011;3012;49.944;8.454;2023-07-09T02:17:23;4.43;;;2.72;;
5971;SDS011;3012;49.944;8.454;2023-07-09T02:19:51;5.60;;;2.67;;
5971;SDS011;3012;49.944;8.454;2023-07-09T02:22:19;7.40;;;3.10;;
5971;SDS011;3012;49.944;8.454;2023-07-09T02:24:48;5.00;;;3.50;;
5971;SDS011;3012;49.944;8.454;2023-07-09T02:27:19;3.65;;;2.83;;
5971;SDS011;3012;49.944;8.454;2023-07-09T02:29:48;7.45;;;3.83;;
5971;SDS011;3012;49.944;8.454;2023-07-09T02:32:17;3.95;;;3.25;;
5971;SDS011;3012;49.944;8.454;2023-07-09T02:34:47;5.68;;;3.47;;
5971;SDS011;3012;49.944;8.454;2023-07-09T02:37:19;6.28;;;3.08;;
5971;SDS011;3012;49.944;8.454;2023-07-09T02:39:50;6.50;;;3.45;;
5971;SDS011;3012;49.944;8.454;2023-07-09T02:42:20;5.43;;;3.55;;
5971;SDS011;3012;49.944;8.454;2023-07-09T02:44:49;4.55;;;3.53;;
5971;SDS011;3012;49.944;8.454;2023-07-09T02:47:18;4.20;;;2.60;;
5971;SDS011;3012;49.944;8.454;2023-07-09T02:49:46;5.13;;;3.25;;
5971;SDS011;3012;49.944;8.454;2023-07-09T02:52:14;10.07;;;3.85;;
5971;SDS011;3012;49.944;8.454;2023-07-09T02:54:43;2.90;;;2.17;;
5971;SDS011;3012;49.944;8.454;2023-07-09T02:57:12;7.97;;;3.70;;
5971;SDS011;3012;49.944;8.454;2023-07-09T02:59:40;5.43;;;3.00;;
5971;SDS011;3012;49.944;8.454;2023-07-09T03:02:08;3.33;;;3.05;;
5971;SDS011;3012;49.944;8.454;2023-07-09T03:04:37;3.05;;;2.80;;
5971;SDS011;3012;49.944;8.454;2023-07-09T03:07:06;3.35;;;3.10;;
5971;SDS011;3012;49.944;8.454;2023-07-09T03:09:34;3.88;;;3.03;;
5971;SDS011;3012;49.944;8.454;2023-07-09T03:12:02;4.10;;;2.92;;
5971;SDS011;3012;49.944;8.454;2023-07-09T03:14:32;5.13;;;3.05;;
5971;SDS011;3012;49.944;8.454;2023-07-09T03:17:00;5.13;;;3.13;;
5971;SDS011;3012;49.944;8.454;2023-07-09T03:19:28;6.35;;;3.00;;
5971;SDS011;3012;49.944;8.454;2023-07-09T03:21:56;4.28;;;2.97;;
5971;SDS011;3012;49.944;8.454;2023-07-09T03:24:24;4.38;;;3.10;;
5971;SDS011;3012;49.944;8.454;2023-07-09T03:26:52;5.03;;;3.22;;
5971;SDS011;3012;49.944;8.454;2023-07-09T03:29:21;5.45;;;2.60;;
5971;SDS011;3012;49.944;8.454;2023-07-09T03:31:50;5.20;;;2.83;;
5971;SDS011;3012;49.944;8.454;2023-07-09T03:34:18;8.75;;;3.28;;
5971;SDS011;3012;49.944;8.454;2023-07-09T03:36:46;3.40;;;3.17;;
5971;SDS011;3012;49.944;8.454;2023-07-09T03:39:17;3.38;;;2.85;;
5971;SDS011;3012;49.944;8.454;2023-07-09T03:41:45;3.83;;;3.13;;
5971;SDS011;3012;49.944;8.454;2023-07-09T03:44:13;5.53;;;3.30;;
5971;SDS011;3012;49.944;8.454;2023-07-09T03:46:41;3.65;;;2.50;;
5971;SDS011;3012;49.944;8.454;2023-07-09T03:49:10;7.88;;;3.22;;
5971;SDS011;3012;49.944;8.454;2023-07-09T03:51:39;7.28;;;3.55;;
5971;SDS011;3012;49.944;8.454;2023-07-09T03:54:07;6.07;;;4.03;;
5971;SDS011;3012;49.944;8.454;2023-07-09T03:56:35;4.35;;;3.55;;
5971;SDS011;3012;49.944;8.454;2023-07-09T03:59:03;4.05;;;2.95;;
5971;SDS011;3012;49.944;8.454;2023-07-09T04:01:31;6.30;;;3.50;;
5971;SDS011;3012;49.944;8.454;2023-07-09T04:03:59;8.23;;;3.75;;
5971;SDS011;3012;49.944;8.454;2023-07-09T04:06:29;8.52;;;4.20;;
5971;SDS011;3012;49.944;8.454;2023-07-09T04:08:57;8.52;;;4.05;;
5971;SDS011;3012;49.944;8.454;2023-07-09T04:11:25;4.93;;;3.45;;
5971;SDS011;3012;49.944;8.454;2023-07-09T04:13:53;5.65;;;3.50;;
5971;SDS011;3012;49.944;8.454;2023-07-09T04:16:21;5.30;;;3.60;;
5971;SDS011;3012;49.944;8.454;2023-07-09T04:18:49;5.32;;;3.17;;
5971;SDS011;3012;49.944;8.454;2023-07-09T04:21:17;8.75;;;3.78;;
5971;SDS011;3012;49.944;8.454;2023-07-09T04:23:46;8.63;;;2.97;;
5971;SDS011;3012;49.944;8.454;2023-07-09T04:26:15;7.85;;;3.38;;
5971;SDS011;3012;49.944;8.454;2023-07-09T04:28:43;2.90;;;2.65;;
5971;SDS011;3012;49.944;8.454;2023-07-09T04:31:12;5.10;;;3.40;;
5971;SDS011;3012;49.944;8.454;2023-07-09T04:33:40;4.20;;;3.55;;
5971;SDS011;3012;49.944;8.454;2023-07-09T04:36:09;3.92;;;3.30;;
5971;SDS011;3012;49.944;8.454;2023-07-09T04:38:39;6.00;;;3.30;;
5971;SDS011;3012;49.944;8.454;2023-07-09T04:41:08;4.90;;;3.72;;
5971;SDS011;3012;49.944;8.454;2023-07-09T04:43:36;5.97;;;4.25;;
5971;SDS011;3012;49.944;8.454;2023-07-09T04:46:04;5.05;;;4.32;;
5971;SDS011;3012;49.944;8.454;2023-07-09T04:48:33;4.18;;;3.83;;
5971;SDS011;3012;49.944;8.454;2023-07-09T04:51:01;7.18;;;4.72;;
5971;SDS011;3012;49.944;8.454;2023-07-09T04:53:29;7.63;;;3.92;;
5971;SDS011;3012;49.944;8.454;2023-07-09T04:55:58;6.43;;;4.40;;
5971;SDS011;3012;49.944;8.454;2023-07-09T04:58:28;8.20;;;4.88;;
5971;SDS011;3012;49.944;8.454;2023-07-09T05:00:56;6.45;;;4.30;;
5971;SDS011;3012;49.944;8.454;2023-07-09T05:03:24;6.78;;;4.82;;
5971;SDS011;3012;49.944;8.454;2023-07-09T05:05:54;9.77;;;4.60;;
5971;SDS011;3012;49.944;8.454;2023-07-09T05:08:22;5.50;;;4.70;;
5971;SDS011;3012;49.944;8.454;2023-07-09T05:10:50;8.85;;;4.50;;
5971;SDS011;3012;49.944;8.454;2023-07-09T05:13:19;10.82;;;5.30;;
5971;SDS011;3012;49.944;8.454;2023-07-09T05:15:49;6.63;;;4.70;;
5971;SDS011;3012;49.944;8.454;2023-07-09T05:18:17;8.55;;;4.53;;
5971;SDS011;3012;49.944;8.454;2023-07-09T05:20:46;6.00;;;4.63;;
5971;SDS011;3012;49.944;8.454;2023-07-09T05:23:14;11.57;;;4.50;;
5971;SDS011;3012;49.944;8.454;2023-07-09T05:25:42;6.00;;;4.93;;
5971;SDS011;3012;49.944;8.454;2023-07-09T05:28:11;5.28;;;4.57;;
5971;SDS011;3012;49.944;8.454;2023-07-09T05:30:41;8.90;;;4.57;;
5971;SDS011;3012;49.944;8.454;2023-07-09T05:33:10;11.10;;;5.22;;
5971;SDS011;3012;49.944;8.454;2023-07-09T05:35:38;6.88;;;4.65;;
5971;SDS011;3012;49.944;8.454;2023-07-09T05:38:06;6.80;;;5.20;;
5971;SDS011;3012;49.944;8.454;2023-07-09T05:40:34;11.85;;;5.03;;
5971;SDS011;3012;49.944;8.454;2023-07-09T05:43:02;10.88;;;5.15;;
5971;SDS011;3012;49.944;8.454;2023-07-09T05:45:30;9.65;;;5.18;;
5971;SDS011;3012;49.944;8.454;2023-07-09T05:47:58;6.63;;;4.65;;
5971;SDS011;3012;49.944;8.454;2023-07-09T05:50:28;5.57;;;5.18;;
5971;SDS011;3012;49.944;8.454;2023-07-09T05:52:56;8.77;;;4.53;;
5971;SDS011;3012;49.944;8.454;2023-07-09T05:55:24;8.73;;;5.28;;
5971;SDS011;3012;49.944;8.454;2023-07-09T05:57:52;6.85;;;4.72;;
5971;SDS011;3012;49.944;8.454;2023-07-09T06:00:21;7.47;;;4.68;;
5971;SDS011;3012;49.944;8.454;2023-07-09T06:02:49;8.07;;;4.88;;
5971;SDS011;3012;49.944;8.454;2023-07-09T06:05:17;3.95;;;3.65;;
5971;SDS011;3012;49.944;8.454;2023-07-09T06:11:20;7.75;;;4.70;;
5971;SDS011;3012;49.944;8.454;2023-07-09T06:13:53;7.82;;;4.75;;
5971;SDS011;3012;49.944;8.454;2023-07-09T06:16:27;6.15;;;4.13;;
5971;SDS011;3012;49.944;8.454;2023-07-09T06:18:57;6.43;;;4.97;;
5971;SDS011;3012;49.944;8.454;2023-07-09T06:21:29;6.00;;;4.50;;
5971;SDS011;3012;49.944;8.454;2023-07-09T06:24:01;4.90;;;4.53;;
5971;SDS011;3012;49.944;8.454;2023-07-09T06:26:33;7.18;;;4.20;;
5971;SDS011;3012;49.944;8.454;2023-07-09T06:29:02;7.60;;;4.70;;
5971;SDS011;3012;49.944;8.454;2023-07-09T06:31:33;7.57;;;3.83;;
5971;SDS011;3012;49.944;8.454;2023-07-09T06:34:08;5.05;;;4.40;;
5971;SDS011;3012;49.944;8.454;2023-07-09T06:36:41;6.35;;;4.78;;
5971;SDS011;3012;49.944;8.454;2023-07-09T06:39:11;7.45;;;4.90;;
5971;SDS011;3012;49.944;8.454;2023-07-09T06:41:42;5.95;;;4.28;;
5971;SDS011;3012;49.944;8.454;2023-07-09T06:44:11;9.52;;;4.88;;
5971;SDS011;3012;49.944;8.454;2023-07-09T06:46:41;11.23;;;4.47;;
5971;SDS011;3012;49.944;8.454;2023-07-09T06:49:11;5.05;;;4.22;;
5971;SDS011;3012;49.944;8.454;2023-07-09T06:51:39;7.15;;;4.30;;
5971;SDS011;3012;49.944;8.454;2023-07-09T06:54:08;8.80;;;4.15;;
5971;SDS011;3012;49.944;8.454;2023-07-09T06:56:36;5.93;;;4.38;;
5971;SDS011;3012;49.944;8.454;2023-07-09T06:59:05;5.45;;;3.80;;
5971;SDS011;3012;49.944;8.454;2023-07-09T07:01:33;8.65;;;4.30;;
5971;SDS011;3012;49.944;8.454;2023-07-09T07:04:02;7.75;;;3.95;;
5971;SDS011;3012;49.944;8.454;2023-07-09T07:06:30;4.45;;;3.45;;
5971;SDS011;3012;49.944;8.454;2023-07-09T07:08:58;3.70;;;3.40;;
5971;SDS011;3012;49.944;8.454;2023-07-09T07:11:26;7.53;;;4.25;;
5971;SDS011;3012;49.944;8.454;2023-07-09T07:13:58;7.90;;;3.58;;
5971;SDS011;3012;49.944;8.454;2023-07-09T07:16:27;9.95;;;3.10;;
5971;SDS011;3012;49.944;8.454;2023-07-09T07:18:55;3.70;;;3.38;;
5971;SDS011;3012;49.944;8.454;2023-07-09T07:21:23;5.65;;;3.95;;
5971;SDS011;3012;49.944;8.454;2023-07-09T07:23:51;8.93;;;3.13;;
5971;SDS011;3012;49.944;8.454;2023-07-09T07:26:19;5.50;;;3.58;;
5971;SDS011;3012;49.944;8.454;2023-07-09T07:28:47;5.35;;;3.60;;
5971;SDS011;3012;49.944;8.454;2023-07-09T07:31:16;5.40;;;3.17;;
5971;SDS011;3012;49.944;8.454;2023-07-09T07:33:48;5.05;;;3.85;;
5971;SDS011;3012;49.944;8.454;2023-07-09T07:36:16;7.82;;;3.80;;
5971;SDS011;3012;49.944;8.454;2023-07-09T07:38:47;4.72;;;3.97;;
5971;SDS011;3012;49.944;8.454;2023-07-09T07:41:15;6.30;;;3.25;;
5971;SDS011;3012;49.944;8.454;2023-07-09T07:43:43;5.82;;;4.35;;
5971;SDS011;3012;49.944;8.454;2023-07-09T07:46:11;6.30;;;3.38;;
5971;SDS011;3012;49.944;8.454;2023-07-09T07:48:39;7.90;;;4.20;;
5971;SDS011;3012;49.944;8.454;2023-07-09T07:51:08;5.45;;;3.97;;
5971;SDS011;3012;49.944;8.454;2023-07-09T07:53:37;6.13;;;4.22;;
5971;SDS011;3012;49.944;8.454;2023-07-09T07:56:05;7.60;;;4.20;;
5971;SDS011;3012;49.944;8.454;2023-07-09T07:58:33;4.20;;;3.65;;
5971;SDS011;3012;49.944;8.454;2023-07-09T08:01:01;8.07;;;5.32;;
5971;SDS011;3012;49.944;8.454;2023-07-09T08:03:30;6.53;;;4.68;;
5971;SDS011;3012;49.944;8.454;2023-07-09T08:05:58;5.90;;;3.92;;
5971;SDS011;3012;49.944;8.454;2023-07-09T08:08:29;4.60;;;4.20;;
5971;SDS011;3012;49.944;8.454;2023-07-09T08:11:01;6.88;;;3.97;;
5971;SDS011;3012;49.944;8.454;2023-07-09T08:13:31;10.48;;;4.65;;
5971;SDS011;3012;49.944;8.454;2023-07-09T08:16:00;7.05;;;3.92;;
5971;SDS011;3012;49.944;8.454;2023-07-09T08:18:29;7.07;;;4.10;;
5971;SDS011;3012;49.944;8.454;2023-07-09T08:20:58;4.80;;;4.28;;
5971;SDS011;3012;49.944;8.454;2023-07-09T08:23:26;4.35;;;3.92;;
5971;SDS011;3012;49.944;8.454;2023-07-09T08:25:55;6.60;;;4.03;;
5971;SDS011;3012;49.944;8.454;2023-07-09T08:28:25;5.18;;;3.95;;
5971;SDS011;3012;49.944;8.454;2023-07-09T08:30:53;5.75;;;3.70;;
5971;SDS011;3012;49.944;8.454;2023-07-09T08:33:22;4.78;;;4.25;;
5971;SDS011;3012;49.944;8.454;2023-07-09T08:35:52;4.75;;;3.95;;
5971;SDS011;3012;49.944;8.454;2023-07-09T08:38:21;5.10;;;3.40;;
5971;SDS011;3012;49.944;8.454;2023-07-09T08:40:53;4.45;;;4.05;;
5971;SDS011;3012;49.944;8.454;2023-07-09T08:43:30;9.30;;;4.40;;
5971;SDS011;3012;49.944;8.454;2023-07-09T08:46:03;7.82;;;4.93;;
5971;SDS011;3012;49.944;8.454;2023-07-09T08:48:44;7.78;;;4.53;;
5971;SDS011;3012;49.944;8.454;2023-07-09T08:51:16;7.90;;;4.55;;
5971;SDS011;3012;49.944;8.454;2023-07-09T08:53:49;5.45;;;4.32;;
5971;SDS011;3012;49.944;8.454;2023-07-09T08:56:22;5.97;;;4.15;;
5971;SDS011;3012;49.944;8.454;2023-07-09T08:58:51;12.27;;;4.45;;
5971;SDS011;3012;49.944;8.454;2023-07-09T09:01:24;6.05;;;4.38;;
5971;SDS011;3012;49.944;8.454;2023-07-09T09:03:58;7.03;;;4.35;;
5971;SDS011;3012;49.944;8.454;2023-07-09T09:06:31;4.97;;;4.50;;
5971;SDS011;3012;49.944;8.454;2023-07-09T09:09:02;7.18;;;4.18;;
5971;SDS011;3012;49.944;8.454;2023-07-09T09:11:43;6.70;;;3.97;;
5971;SDS011;3012;49.944;8.454;2023-07-09T09:14:17;3.95;;;3.13;;
5971;SDS011;3012;49.944;8.454;2023-07-09T09:16:51;6.88;;;4.00;;
5971;SDS011;3012;49.944;8.454;2023-07-09T09:19:21;4.78;;;3.90;;
5971;SDS011;3012;49.944;8.454;2023-07-09T09:21:54;5.45;;;3.28;;
5971;SDS011;3012;49.944;8.454;2023-07-09T09:24:26;4.90;;;3.20;;
5971;SDS011;3012;49.944;8.454;2023-07-09T09:26:59;9.98;;;3.97;;
5971;SDS011;3012;49.944;8.454;2023-07-09T09:29:27;4.40;;;4.00;;
5971;SDS011;3012;49.944;8.454;2023-07-09T09:31:55;6.65;;;3.95;;
5971;SDS011;3012;49.944;8.454;2023-07-09T09:34:26;9.18;;;4.43;;
5971;SDS011;3012;49.944;8.454;2023-07-09T09:36:56;5.55;;;3.83;;
5971;SDS011;3012;49.944;8.454;2023-07-09T09:39:26;9.23;;;4.30;;
5971;SDS011;3012;49.944;8.454;2023-07-09T09:41:57;5.72;;;4.18;;
5971;SDS011;3012;49.944;8.454;2023-07-09T09:44:28;7.15;;;4.07;;
5971;SDS011;3012;49.944;8.454;2023-07-09T09:46:57;7.38;;;3.65;;
5971;SDS011;3012;49.944;8.454;2023-07-09T09:49:26;10.52;;;4.45;;
5971;SDS011;3012;49.944;8.454;2023-07-09T09:51:55;5.70;;;3.85;;
5971;SDS011;3012;49.944;8.454;2023-07-09T09:54:28;5.00;;;3.88;;
5971;SDS011;3012;49.944;8.454;2023-07-09T09:56:58;3.53;;;3.15;;
5971;SDS011;3012;49.944;8.454;2023-07-09T09:59:27;10.25;;;3.53;;
5971;SDS011;3012;49.944;8.454;2023-07-09T10:01:59;9.88;;;3.85;;
5971;SDS011;3012;49.944;8.454;2023-07-09T10:04:29;3.85;;;3.50;;
5971;SDS011;3012;49.944;8.454;2023-07-09T10:06:58;6.53;;;3.70;;
5971;SDS011;3012;49.944;8.454;2023-07-09T10:09:36;5.60;;;3.35;;
5971;SDS011;3012;49.944;8.454;2023-07-09T10:12:15;4.80;;;3.72;;
5971;SDS011;3012;49.944;8.454;2023-07-09T10:14:58;4.93;;;3.67;;
5971;SDS011;3012;49.944;8.454;2023-07-09T10:17:35;7.10;;;4.25;;
5971;SDS011;3012;49.944;8.454;2023-07-09T10:20:07;4.15;;;3.42;;
5971;SDS011;3012;49.944;8.454;2023-07-09T10:22:46;4.53;;;4.13;;
5971;SDS011;3012;49.944;8.454;2023-07-09T10:25:26;7.00;;;4.00;;
5971;SDS011;3012;49.944;8.454;2023-07-09T10:28:05;7.40;;;3.25;;
5971;SDS011;3012;49.944;8.454;2023-07-09T10:30:46;3.55;;;2.97;;
5971;SDS011;3012;49.944;8.454;2023-07-09T10:33:24;3.80;;;3.50;;
5971;SDS011;3012;49.944;8.454;2023-07-09T10:35:59;4.90;;;3.35;;
5971;SDS011;3012;49.944;8.454;2023-07-09T10:38:36;6.10;;;3.60;;
5971;SDS011;3012;49.944;8.454;2023-07-09T10:41:15;4.88;;;3.30;;
5971;SDS011;3012;49.944;8.454;2023-07-09T10:43:56;4.10;;;2.85;;
5971;SDS011;3012;49.944;8.454;2023-07-09T10:46:28;4.70;;;3.13;;
5971;SDS011;3012;49.944;8.454;2023-07-09T10:49:01;8.57;;;2.47;;
5971;SDS011;3012;49.944;8.454;2023-07-09T10:51:33;3.35;;;2.80;;
5971;SDS011;3012;49.944;8.454;2023-07-09T10:54:06;2.88;;;2.67;;
5971;SDS011;3012;49.944;8.454;2023-07-09T10:56:42;3.42;;;3.13;;
5971;SDS011;3012;49.944;8.454;2023-07-09T10:59:17;4.13;;;3.55;;
5971;SDS011;3012;49.944;8.454;2023-07-09T11:01:49;3.13;;;2.90;;
5971;SDS011;3012;49.944;8.454;2023-07-09T11:04:25;10.48;;;3.58;;
5971;SDS011;3012;49.944;8.454;2023-07-09T11:06:59;3.30;;;2.60;;
5971;SDS011;3012;49.944;8.454;2023-07-09T11:09:31;3.03;;;2.50;;
5971;SDS011;3012;49.944;8.454;2023-07-09T11:12:04;5.78;;;3.40;;
5971;SDS011;3012;49.944;8.454;2023-07-09T11:14:40;7.20;;;3.50;;
5971;SDS011;3012;49.944;8.454;2023-07-09T11:17:14;3.67;;;2.88;;
5971;SDS011;3012;49.944;8.454;2023-07-09T11:19:45;4.50;;;3.10;;
5971;SDS011;3012;49.944;8.454;2023-07-09T11:22:16;3.55;;;2.83;;
5971;SDS011;3012;49.944;8.454;2023-07-09T11:24:49;3.55;;;2.60;;
5971;SDS011;3012;49.944;8.454;2023-07-09T11:27:19;3.40;;;3.15;;
5971;SDS011;3012;49.944;8.454;2023-07-09T11:29:57;3.67;;;2.63;;
5971;SDS011;3012;49.944;8.454;2023-07-09T11:32:26;3.13;;;2.83;;
5971;SDS011;3012;49.944;8.454;2023-07-09T11:35:08;3.58;;;2.72;;
5971;SDS011;3012;49.944;8.454;2023-07-09T11:37:44;3.22;;;2.60;;
5971;SDS011;3012;49.944;8.454;2023-07-09T11:40:14;4.85;;;3.15;;
5971;SDS011;3012;49.944;8.454;2023-07-09T11:42:52;2.78;;;2.58;;
5971;SDS011;3012;49.944;8.454;2023-07-09T11:45:25;3.10;;;2.78;;
5971;SDS011;3012;49.944;8.454;2023-07-09T11:47:57;3.15;;;2.83;;
5971;SDS011;3012;49.944;8.454;2023-07-09T11:50:35;3.75;;;3.10;;
5971;SDS011;3012;49.944;8.454;2023-07-09T11:53:16;4.10;;;2.72;;
5971;SDS011;3012;49.944;8.454;2023-07-09T11:55:51;3.20;;;3.03;;
5971;SDS011;3012;49.944;8.454;2023-07-09T11:58:19;3.47;;;2.67;;
5971;SDS011;3012;49.944;8.454;2023-07-09T12:00:49;4.43;;;2.22;;
5971;SDS011;3012;49.944;8.454;2023-07-09T12:03:20;3.47;;;2.90;;
5971;SDS011;3012;49.944;8.454;2023-07-09T12:05:53;6.00;;;2.72;;
5971;SDS011;3012;49.944;8.454;2023-07-09T12:08:25;3.75;;;2.80;;
5971;SDS011;3012;49.944;8.454;2023-07-09T12:10:56;5.28;;;2.47;;
5971;SDS011;3012;49.944;8.454;2023-07-09T12:13:24;5.90;;;2.50;;
5971;SDS011;3012;49.944;8.454;2023-07-09T12:15:54;5.20;;;2.47;;
5971;SDS011;3012;49.944;8.454;2023-07-09T12:18:22;5.93;;;3.35;;
5971;SDS011;3012;49.944;8.454;2023-07-09T12:20:51;6.78;;;3.08;;
5971;SDS011;3012;49.944;8.454;2023-07-09T12:23:22;3.85;;;2.63;;
5971;SDS011;3012;49.944;8.454;2023-07-09T12:25:54;6.28;;;2.83;;
5971;SDS011;3012;49.944;8.454;2023-07-09T12:28:27;3.08;;;2.88;;
5971;SDS011;3012;49.944;8.454;2023-07-09T12:30:57;2.75;;;2.55;;
5971;SDS011;3012;49.944;8.454;2023-07-09T12:33:26;5.55;;;2.80;;
5971;SDS011;3012;49.944;8.454;2023-07-09T12:35:55;3.08;;;2.85;;
5971;SDS011;3012;49.944;8.454;2023-07-09T12:38:27;3.95;;;2.97;;
5971;SDS011;3012;49.944;8.454;2023-07-09T12:41:16;8.98;;;2.85;;
5971;SDS011;3012;49.944;8.454;2023-07-09T12:43:48;4.65;;;2.58;;
5971;SDS011;3012;49.944;8.454;2023-07-09T12:46:18;7.35;;;3.22;;
5971;SDS011;3012;49.944;8.454;2023-07-09T12:48:46;2.50;;;2.40;;
5971;SDS011;3012;49.944;8.454;2023-07-09T12:51:20;4.70;;;3.22;;
5971;SDS011;3012;49.944;8.454;2023-07-09T12:53:59;4.80;;;3.05;;
5971;SDS011;3012;49.944;8.454;2023-07-09T12:56:28;5.65;;;2.97;;
5971;SDS011;3012;49.944;8.454;2023-07-09T12:58:57;6.93;;;2.78;;
5971;SDS011;3012;49.944;8.454;2023-07-09T13:01:26;6.25;;;2.92;;
5971;SDS011;3012;49.944;8.454;2023-07-09T13:04:01;6.70;;;2.97;;
5971;SDS011;3012;49.944;8.454;2023-07-09T13:06:30;7.65;;;3.28;;
5971;SDS011;3012;49.944;8.454;2023-07-09T13:09:09;6.32;;;2.40;;
5971;SDS011;3012;49.944;8.454;2023-07-09T13:11:44;3.95;;;2.85;;
5971;SDS011;3012;49.944;8.454;2023-07-09T13:14:16;3.20;;;2.90;;
5971;SDS011;3012;49.944;8.454;2023-07-09T13:16:48;3.70;;;2.92;;
5971;SDS011;3012;49.944;8.454;2023-07-09T13:19:16;5.45;;;3.00;;
5971;SDS011;3012;49.944;8.454;2023-07-09T13:21:46;5.68;;;3.38;;
5971;SDS011;3012;49.944;8.454;2023-07-09T13:24:20;5.63;;;2.72;;
5971;SDS011;3012;49.944;8.454;2023-07-09T13:26:51;8.10;;;2.42;;
5971;SDS011;3012;49.944;8.454;2023-07-09T13:29:22;3.55;;;2.75;;
5971;SDS011;3012;49.944;8.454;2023-07-09T13:31:53;3.00;;;2.58;;
5971;SDS011;3012;49.944;8.454;2023-07-09T13:34:26;5.18;;;3.28;;
5971;SDS011;3012;49.944;8.454;2023-07-09T13:36:57;6.18;;;2.30;;
5971;SDS011;3012;49.944;8.454;2023-07-09T13:39:26;4.63;;;3.33;;
5971;SDS011;3012;49.944;8.454;2023-07-09T13:41:57;3.67;;;2.72;;
5971;SDS011;3012;49.944;8.454;2023-07-09T13:44:27;4.00;;;2.92;;
5971;SDS011;3012;49.944;8.454;2023-07-09T13:46:58;4.25;;;2.88;;
5971;SDS011;3012;49.944;8.454;2023-07-09T13:49:26;6.28;;;2.60;;
5971;SDS011;3012;49.944;8.454;2023-07-09T13:51:58;2.63;;;2.42;;
5971;SDS011;3012;49.944;8.454;2023-07-09T13:54:28;6.10;;;2.58;;
5971;SDS011;3012;49.944;8.454;2023-07-09T13:57:02;5.63;;;2.60;;
5971;SDS011;3012;49.944;8.454;2023-07-09T13:59:31;6.03;;;3.30;;
5971;SDS011;3012;49.944;8.454;2023-07-09T14:02:01;2.78;;;2.20;;
5971;SDS011;3012;49.944;8.454;2023-07-09T14:04:40;3.03;;;2.55;;
5971;SDS011;3012;49.944;8.454;2023-07-09T14:07:09;3.83;;;3.03;;
5971;SDS011;3012;49.944;8.454;2023-07-09T14:09:50;6.03;;;3.25;;
5971;SDS011;3012;49.944;8.454;2023-07-09T14:12:18;2.75;;;2.42;;
5971;SDS011;3012;49.944;8.454;2023-07-09T14:14:47;5.53;;;3.13;;
5971;SDS011;3012;49.944;8.454;2023-07-09T14:17:19;5.55;;;3.00;;
5971;SDS011;3012;49.944;8.454;2023-07-09T14:19:49;3.30;;;3.08;;
5971;SDS011;3012;49.944;8.454;2023-07-09T14:22:21;2.97;;;2.78;;
5971;SDS011;3012;49.944;8.454;2023-07-09T14:24:56;3.60;;;2.75;;
5971;SDS011;3012;49.944;8.454;2023-07-09T14:27:25;9.25;;;3.55;;
5971;SDS011;3012;49.944;8.454;2023-07-09T14:29:54;2.72;;;2.53;;
5971;SDS011;3012;49.944;8.454;2023-07-09T14:32:34;7.32;;;4.38;;
5971;SDS011;3012;49.944;8.454;2023-07-09T14:35:10;5.63;;;3.17;;
5971;SDS011;3012;49.944;8.454;2023-07-09T14:37:40;6.47;;;3.00;;
5971;SDS011;3012;49.944;8.454;2023-07-09T14:40:09;2.88;;;2.67;;
5971;SDS011;3012;49.944;8.454;2023-07-09T14:42:38;3.08;;;2.47;;
5971;SDS011;3012;49.944;8.454;2023-07-09T14:45:15;11.38;;;2.53;;
5971;SDS011;3012;49.944;8.454;2023-07-09T14:47:50;4.78;;;2.90;;
5971;SDS011;3012;49.944;8.454;2023-07-09T14:50:19;2.95;;;2.33;;
5971;SDS011;3012;49.944;8.454;2023-07-09T14:52:50;4.82;;;2.53;;
5971;SDS011;3012;49.944;8.454;2023-07-09T14:55:21;2.67;;;2.47;;
5971;SDS011;3012;49.944;8.454;2023-07-09T14:57:51;4.18;;;2.30;;
5971;SDS011;3012;49.944;8.454;2023-07-09T15:00:20;4.75;;;2.15;;
5971;SDS011;3012;49.944;8.454;2023-07-09T15:02:51;3.03;;;2.55;;
5971;SDS011;3012;49.944;8.454;2023-07-09T15:05:22;5.60;;;2.47;;
5971;SDS011;3012;49.944;8.454;2023-07-09T15:07:52;4.25;;;2.20;;
5971;SDS011;3012;49.944;8.454;2023-07-09T15:10:23;4.75;;;2.50;;
5971;SDS011;3012;49.944;8.454;2023-07-09T15:12:53;2.97;;;2.63;;
5971;SDS011;3012;49.944;8.454;2023-07-09T15:15:23;2.55;;;2.35;;
5971;SDS011;3012;49.944;8.454;2023-07-09T15:17:55;2.15;;;2.05;;
5971;SDS011;3012;49.944;8.454;2023-07-09T15:20:28;5.60;;;2.90;;
5971;SDS011;3012;49.944;8.454;2023-07-09T15:22:58;3.83;;;2.15;;
5971;SDS011;3012;49.944;8.454;2023-07-09T15:25:27;2.30;;;2.20;;
5971;SDS011;3012;49.944;8.454;2023-07-09T15:27:57;3.70;;;2.30;;
5971;SDS011;3012;49.944;8.454;2023-07-09T15:30:27;2.95;;;2.67;;
5971;SDS011;3012;49.944;8.454;2023-07-09T15:32:59;5.57;;;2.15;;
5971;SDS011;3012;49.944;8.454;2023-07-09T15:35:38;3.00;;;2.70;;
5971;SDS011;3012;49.944;8.454;2023-07-09T15:38:12;6.00;;;2.40;;
5971;SDS011;3012;49.944;8.454;2023-07-09T15:40:49;3.15;;;2.75;;
5971;SDS011;3012;49.944;8.454;2023-07-09T15:43:17;5.68;;;2.50;;